createdAt,value
2023-03-23T15:59:52.118Z,40.90
2023-03-23T16:02:27.806Z,41.60
2023-03-23T16:04:58.082Z,41.50
2023-03-23T16:07:27.968Z,40.60
2023-03-23T16:09:59.031Z,41.10
2023-03-23T16:12:30.583Z,41.80
2023-03-23T16:15:00.714Z,42.20
2023-03-23T16:17:31.183Z,41.90
2023-03-23T16:20:01.128Z,42.50
2023-03-23T16:22:32.192Z,43.00
2023-03-23T16:25:02.744Z,43.40
2023-03-23T16:27:34.602Z,43.60
2023-03-23T16:30:05.332Z,44.10
2023-03-23T16:35:05.158Z,45.20
2023-03-23T16:37:35.379Z,45.30
2023-03-23T16:40:08.400Z,45.50
2023-03-23T16:42:42.278Z,46.60
2023-03-23T16:45:14.663Z,47.40
2023-03-23T16:47:47.952Z,47.60
2023-03-23T16:50:19.584Z,47.70
2023-03-23T16:52:50.328Z,48.40
2023-03-23T16:55:21.454Z,49.30
2023-03-23T16:57:58.194Z,49.40
2023-03-23T17:00:35.851Z,50.50
2023-03-23T17:03:06.637Z,50.60
2023-03-23T17:05:39.364Z,51.20
2023-03-23T17:08:10.057Z,52.10
2023-03-23T17:10:42.869Z,53.00
2023-03-23T17:13:14.716Z,54.20
2023-03-23T17:15:47.250Z,54.00
2023-03-23T17:18:18.218Z,55.10
2023-03-23T17:20:48.453Z,55.20
2023-03-23T17:23:18.872Z,55.90
2023-03-23T17:25:51.045Z,55.50
2023-03-23T17:28:22.856Z,55.40
2023-03-23T17:30:54.780Z,55.20
2023-03-23T17:33:24.772Z,56.10
2023-03-23T17:35:55.551Z,56.30
2023-03-23T17:38:25.632Z,56.70
2023-03-23T17:40:59.941Z,56.70
2023-03-23T17:43:31.193Z,56.70
2023-03-23T17:46:01.202Z,57.20
2023-03-23T17:48:31.043Z,58.60
2023-03-23T17:51:02.660Z,60.20
2023-03-23T17:53:34.232Z,60.50
2023-03-23T17:56:04.513Z,60.30
2023-03-23T17:58:37.323Z,60.20
2023-03-23T18:01:07.899Z,61.00
2023-03-23T18:03:39.040Z,61.10
2023-03-23T18:06:10.526Z,61.70
2023-03-23T18:08:41.202Z,62.00
2023-03-23T18:11:11.197Z,63.50
2023-03-23T18:13:42.872Z,63.60
2023-03-23T18:16:12.683Z,63.70
2023-03-23T18:18:42.569Z,63.70
2023-03-23T18:21:13.231Z,65.00
2023-03-23T18:23:56.720Z,67.00
2023-03-23T18:26:29.341Z,67.40
2023-03-23T18:29:00.880Z,67.60
2023-03-23T18:31:31.316Z,67.70
2023-03-23T18:34:01.321Z,68.80
2023-03-23T18:36:31.237Z,68.20
2023-03-23T18:39:01.258Z,67.80
2023-03-23T18:41:33.003Z,67.70
2023-03-23T18:44:04.778Z,68.80
2023-03-23T18:46:37.593Z,69.20
2023-03-23T18:49:07.559Z,69.50
2023-03-23T18:51:38.219Z,70.40
2023-03-23T18:54:09.233Z,71.10
2023-03-23T18:56:43.069Z,72.00
2023-03-23T18:59:24.944Z,73.20
2023-03-23T19:01:55.189Z,74.60
2023-03-23T19:04:25.800Z,75.30
2023-03-23T19:06:55.909Z,77.40
2023-03-23T19:09:26.040Z,79.00
2023-03-23T19:11:56.252Z,78.80
2023-03-23T19:14:27.906Z,78.20
2023-03-23T19:16:57.722Z,79.40
2023-03-23T19:19:27.523Z,80.60
2023-03-23T19:21:57.543Z,81.50
2023-03-23T19:24:30.634Z,82.40
2023-03-23T19:27:00.561Z,82.20
2023-03-23T19:29:32.311Z,81.60
2023-03-23T19:32:02.315Z,82.50
2023-03-23T19:34:32.858Z,82.90
2023-03-23T19:37:05.814Z,84.20
2023-03-23T19:39:38.069Z,84.90
2023-03-23T19:42:08.445Z,85.00
2023-03-23T19:44:41.214Z,85.20
2023-03-23T19:47:11.652Z,84.10
2023-03-23T19:49:41.993Z,82.70
2023-03-23T19:52:14.069Z,83.10
2023-03-23T19:54:46.402Z,84.10
2023-03-23T19:57:17.109Z,84.50
2023-03-23T19:59:57.751Z,84.60
2023-03-23T20:02:29.425Z,84.90
2023-03-23T20:04:59.623Z,86.80
2023-03-23T20:07:29.966Z,87.10
2023-03-23T20:09:59.711Z,86.60
2023-03-23T20:12:29.517Z,87.90
2023-03-23T20:15:04.084Z,89.00
2023-03-23T20:17:37.539Z,89.20
2023-03-23T20:20:10.416Z,89.50
2023-03-23T20:22:41.265Z,90.10
2023-03-23T20:25:12.184Z,90.00
2023-03-23T20:27:42.822Z,90.00
2023-03-23T20:30:15.559Z,90.70
2023-03-23T20:32:46.785Z,90.60
2023-03-23T20:35:16.982Z,89.50
2023-03-23T20:37:53.145Z,89.10
2023-03-23T20:40:23.665Z,88.90
2023-03-23T20:42:54.802Z,90.10
2023-03-23T20:45:26.655Z,91.50
2023-03-23T20:47:56.501Z,90.60
2023-03-23T20:50:26.288Z,90.70
2023-03-23T20:52:56.311Z,91.30
2023-03-23T20:55:26.536Z,90.90
2023-03-23T20:57:56.445Z,90.90
2023-03-23T21:00:28.007Z,91.10
2023-03-23T21:02:57.817Z,91.10
2023-03-23T21:05:27.635Z,90.70
2023-03-23T21:07:58.575Z,91.10
2023-03-23T21:10:28.987Z,90.50
2023-03-23T21:12:59.416Z,90.70
2023-03-23T21:15:31.055Z,90.50
2023-03-23T21:18:01.739Z,90.10
2023-03-23T21:20:32.215Z,91.20
2023-03-23T21:23:03.469Z,91.70
2023-03-23T21:25:36.663Z,91.40
2023-03-23T21:28:09.454Z,90.90
2023-03-23T21:30:46.347Z,91.40
2023-03-23T21:33:17.599Z,91.80
2023-03-23T21:35:47.598Z,92.10
2023-03-23T21:38:20.570Z,92.40
2023-03-23T21:40:51.288Z,92.20
2023-03-23T21:43:27.933Z,92.10
2023-03-23T21:46:03.415Z,92.00
2023-03-23T21:48:34.256Z,92.30
2023-03-23T21:51:08.976Z,92.70
2023-03-23T21:53:38.877Z,92.70
2023-03-23T21:56:10.557Z,93.00
2023-03-23T21:58:41.370Z,93.00
2023-03-23T22:01:13.365Z,93.20
2023-03-23T22:03:43.447Z,93.20
2023-03-23T22:06:15.623Z,93.50
2023-03-23T22:08:48.086Z,92.90
2023-03-23T22:11:19.860Z,92.80
2023-03-23T22:13:50.600Z,92.90
2023-03-23T22:16:23.164Z,92.80
2023-03-23T22:18:55.199Z,92.10
2023-03-23T22:21:28.238Z,92.50
2023-03-23T22:24:00.208Z,93.10
2023-03-23T22:26:31.110Z,93.20
2023-03-23T22:29:02.588Z,93.00
2023-03-23T22:31:36.834Z,93.20
2023-03-23T22:34:07.637Z,93.20
2023-03-23T22:36:37.579Z,93.30
2023-03-23T22:39:08.686Z,93.50
2023-03-23T22:41:40.441Z,93.70
2023-03-23T22:44:14.247Z,93.80
2023-03-23T22:46:46.292Z,93.90
2023-03-23T22:49:16.531Z,94.00
2023-03-23T22:51:47.255Z,94.10
2023-03-23T22:54:17.084Z,94.10
2023-03-23T22:56:47.302Z,93.60
2023-03-23T22:59:17.424Z,93.50
2023-03-23T23:01:48.975Z,93.40
2023-03-23T23:04:19.353Z,93.80
2023-03-23T23:06:50.099Z,94.50
2023-03-23T23:09:20.690Z,95.10
2023-03-23T23:11:50.673Z,95.20
2023-03-23T23:14:20.479Z,94.80
2023-03-23T23:16:52.248Z,94.60
2023-03-23T23:19:22.501Z,94.10
2023-03-23T23:21:52.880Z,94.20
2023-03-23T23:24:22.805Z,94.60
2023-03-23T23:26:52.625Z,95.50
2023-03-23T23:29:22.602Z,96.80
2023-03-23T23:31:54.603Z,97.10
2023-03-23T23:34:25.736Z,96.30
2023-03-23T23:36:56.065Z,96.80
2023-03-23T23:39:27.106Z,97.00
2023-03-23T23:41:57.215Z,96.60
2023-03-23T23:44:27.352Z,97.00
2023-03-23T23:46:58.799Z,96.70
2023-03-23T23:49:29.334Z,96.60
2023-03-23T23:51:59.556Z,96.30
2023-03-23T23:54:31.538Z,96.30
2023-03-23T23:57:02.598Z,96.50
2023-03-23T23:59:32.972Z,96.80
